Time;durP1;ratioP1;P1;durP2;ratioP2;P2;SDS_P1;SDS_P2;PMS_P1;PMS_P2;Temp;Humidity;BMP_temperature;BMP_pressure;BME280_temperature;BME280_humidity;BME280_pressure;Samples;Min_cycle;Max_cycle;Signal;HPM_P1;HPM_P2
2022/05/24 00:00:47;;;;;;;3.05;1.70;;;;;;;11.03;48.69;100535.59;5088127;28;20105;-69
2022/05/24 00:03:12;;;;;;;2.22;1.40;;;;;;;11.05;48.09;100530.63;5091023;28;20044;-69
2022/05/24 00:05:38;;;;;;;2.28;1.48;;;;;;;11.01;48.12;100537.81;5088149;28;20043;-67
2022/05/24 00:08:06;;;;;;;2.38;1.42;;;;;;;10.98;47.09;100546.63;5091013;28;20410;-67
2022/05/24 00:10:39;;;;;;;1.83;1.50;;;;;;;10.97;47.57;100542.22;5089526;28;20479;-67
2022/05/24 00:13:05;;;;;;;3.58;1.60;;;;;;;10.96;46.86;100550.75;5083620;28;20461;-67
2022/05/24 00:15:31;;;;;;;4.25;1.60;;;;;;;10.89;45.40;100537.34;5083385;28;20510;-68
2022/05/24 00:18:01;;;;;;;1.90;1.15;;;;;;;10.81;44.95;100548.94;5079834;28;20044;-68
2022/05/24 00:20:37;;;;;;;2.58;1.40;;;;;;;10.72;45.33;100547.88;5083782;28;20387;-68
2022/05/24 00:23:03;;;;;;;1.83;1.50;;;;;;;10.65;45.48;100544.66;5084274;28;20053;-68
2022/05/24 00:25:31;;;;;;;3.10;1.35;;;;;;;10.55;45.06;100545.50;5085840;28;20032;-67
2022/05/24 00:27:57;;;;;;;5.05;1.48;;;;;;;10.51;45.76;100550.75;5086427;28;20032;-68
2022/05/24 00:30:23;;;;;;;4.50;1.33;;;;;;;10.46;45.72;100558.19;5094940;28;20066;-68
2022/05/24 00:32:48;;;;;;;1.77;1.27;;;;;;;10.36;45.44;100553.56;5077656;28;20036;-69
2022/05/24 00:35:17;;;;;;;1.63;1.47;;;;;;;10.27;46.25;100555.28;5077064;28;20078;-67
2022/05/24 00:37:44;;;;;;;2.17;1.45;;;;;;;10.24;46.01;100550.38;5083669;28;20043;-67
2022/05/24 00:40:13;;;;;;;3.40;1.40;;;;;;;10.12;45.91;100558.88;5084783;28;20040;-68
2022/05/24 00:42:40;;;;;;;1.90;1.52;;;;;;;10.05;45.72;100557.50;5080372;28;20032;-67
2022/05/24 00:45:19;;;;;;;1.55;1.23;;;;;;;9.98;46.03;100564.13;5071442;28;20075;-68
2022/05/24 00:48:06;;;;;;;1.80;1.40;;;;;;;9.91;46.00;100563.59;5078389;28;20130;-67
2022/05/24 00:50:37;;;;;;;1.85;1.67;;;;;;;9.85;46.27;100572.91;5080455;28;20085;-69
2022/05/24 00:53:09;;;;;;;1.52;1.20;;;;;;;9.80;46.83;100569.38;5077423;28;20502;-69
2022/05/24 00:55:57;;;;;;;2.65;1.58;;;;;;;9.75;46.58;100574.88;5076799;28;20047;-69
2022/05/24 00:58:38;;;;;;;3.28;1.35;;;;;;;9.69;46.67;100576.78;5065307;28;20089;-67
2022/05/24 01:01:40;;;;;;;1.63;1.20;;;;;;;9.61;47.28;100580.94;5074409;28;20048;-68
2022/05/24 01:04:08;;;;;;;5.70;1.27;;;;;;;9.59;47.04;100574.91;5080077;28;20521;-68
2022/05/24 01:06:34;;;;;;;2.25;1.42;;;;;;;9.58;47.29;100578.75;5107083;28;20032;-67
2022/05/24 01:09:02;;;;;;;3.17;1.48;;;;;;;9.54;46.81;100579.53;5100603;28;20032;-68
2022/05/24 01:11:30;;;;;;;1.35;1.13;;;;;;;9.51;46.76;100583.66;5082410;28;20024;-67
2022/05/24 01:13:56;;;;;;;2.05;1.20;;;;;;;9.48;47.00;100581.47;5078086;28;20051;-67
2022/05/24 01:16:22;;;;;;;2.42;1.75;;;;;;;9.50;46.74;100586.69;5090225;28;20032;-68
2022/05/24 01:18:48;;;;;;;2.80;1.52;;;;;;;9.50;47.12;100584.75;5080741;28;20047;-67
2022/05/24 01:21:16;;;;;;;5.47;1.75;;;;;;;9.51;47.00;100583.66;5085400;28;20085;-67
2022/05/24 01:24:05;;;;;;;3.63;1.40;;;;;;;9.54;46.42;100593.25;5077015;28;20040;-67
2022/05/24 01:26:51;;;;;;;;;;;;;;;9.61;46.89;100589.13;5084740;28;20131;-68
2022/05/24 01:29:20;;;;;;;2.25;1.38;;;;;;;9.70;46.99;100591.31;5091762;28;19921;-68
2022/05/24 01:37:17;;;;;;;4.00;1.60;;;;;;;9.74;48.11;100598.72;5071579;28;20135;-69
2022/05/24 01:39:43;;;;;;;1.83;1.40;;;;;;;9.79;48.51;100587.75;5102857;28;20526;-69
2022/05/24 01:42:11;;;;;;;2.33;1.50;;;;;;;9.81;47.93;100591.03;5100588;28;20094;-67
2022/05/24 01:44:39;;;;;;;2.30;1.52;;;;;;;9.77;47.64;100589.94;5085413;28;20078;-68
2022/05/24 01:47:05;;;;;;;3.15;1.80;;;;;;;9.72;47.78;100586.38;5090345;28;20074;-68
2022/05/24 01:49:34;;;;;;;3.05;1.50;;;;;;;9.75;47.11;100592.16;5074877;28;20123;-68
2022/05/24 01:52:04;;;;;;;1.67;1.40;;;;;;;9.73;47.09;100593.53;5086641;28;20091;-67
2022/05/24 01:54:33;;;;;;;2.40;1.42;;;;;;;9.75;47.08;100591.31;5078010;28;20052;-68
2022/05/24 01:57:06;;;;;;;2.97;1.50;;;;;;;9.82;47.47;100589.91;5071606;28;20461;-69
2022/05/24 01:59:32;;;;;;;4.10;1.95;;;;;;;9.91;47.48;100598.41;5088366;28;20645;-70
2022/05/24 02:01:59;;;;;;;3.35;1.42;;;;;;;10.05;46.84;100593.16;5070953;28;20090;-69
2022/05/24 02:04:26;;;;;;;3.17;1.77;;;;;;;10.09;46.09;100591.50;5081562;28;20516;-69
2022/05/24 02:06:59;;;;;;;2.70;1.80;;;;;;;10.13;45.71;100600.81;5088619;28;20032;-68
2022/05/24 02:09:25;;;;;;;1.95;1.48;;;;;;;10.19;46.26;100599.69;5071659;28;20051;-68
2022/05/24 02:11:51;;;;;;;2.90;1.60;;;;;;;10.31;46.34;100602.97;5072442;28;20036;-68
2022/05/24 02:14:23;;;;;;;3.47;1.70;;;;;;;10.45;45.78;100600.47;5081574;28;20079;-68
2022/05/24 02:16:52;;;;;;;3.00;1.98;;;;;;;10.62;45.10;100605.59;5085318;28;20086;-68
2022/05/24 02:19:18;;;;;;;3.45;1.85;;;;;;;10.75;45.08;100607.69;5087885;28;20496;-67
2022/05/24 02:21:46;;;;;;;3.28;1.58;;;;;;;10.89;44.32;100605.97;5085234;28;20040;-69
2022/05/24 02:24:22;;;;;;;2.53;1.63;;;;;;;11.00;44.20;100612.22;5076911;28;20047;-69
2022/05/24 02:26:49;;;;;;;3.33;1.33;;;;;;;10.99;44.11;100613.34;5080237;28;20059;-69
2022/05/24 02:29:15;;;;;;;4.28;1.98;;;;;;;11.05;44.13;100615.75;5084508;28;20495;-69
2022/05/24 02:31:41;;;;;;;3.95;2.20;;;;;;;11.09;44.42;100611.31;5076122;28;20050;-69
2022/05/24 02:34:06;;;;;;;2.10;1.23;;;;;;;11.24;44.41;100617.81;5079395;28;20032;-69
2022/05/24 02:36:32;;;;;;;2.53;1.35;;;;;;;11.32;43.84;100617.22;5075230;28;20044;-69
2022/05/24 02:38:58;;;;;;;3.15;1.80;;;;;;;11.35;42.44;100622.13;5090512;28;20056;-69
2022/05/24 02:41:31;;;;;;;;;;;;;;;11.37;43.38;100622.66;5076951;28;20037;-69
2022/05/24 02:44:06;;;;;;;2.63;1.73;;;;;;;11.45;42.10;100619.28;5078174;28;19956;-69
2022/05/24 02:46:33;;;;;;;2.80;1.63;;;;;;;11.39;42.10;100624.03;5101692;28;20127;-69
2022/05/24 02:48:58;;;;;;;0.88;0.88;;;;;;;11.42;40.42;100631.69;5075734;28;20036;-69
2022/05/24 02:51:25;;;;;;;2.70;1.63;;;;;;;11.47;40.77;100633.59;5070615;28;20079;-69
2022/05/24 02:53:51;;;;;;;2.97;1.42;;;;;;;11.58;40.00;100635.13;5073350;28;20036;-69
2022/05/24 02:56:17;;;;;;;3.55;1.58;;;;;;;11.65;39.45;100630.13;5073599;28;20588;-69
2022/05/24 02:58:43;;;;;;;3.53;1.50;;;;;;;11.63;39.28;100637.84;5085235;28;20506;-67
2022/05/24 03:01:20;;;;;;;3.08;1.48;;;;;;;11.59;38.49;100636.75;5076111;28;20040;-68
2022/05/24 03:03:48;;;;;;;4.45;2.35;;;;;;;11.39;39.12;100646.00;5078589;28;20123;-69
2022/05/24 03:06:14;;;;;;;4.25;2.10;;;;;;;11.40;39.43;100649.56;5078989;28;20079;-69
2022/05/24 03:11:24;;;;;;;3.28;1.65;;;;;;;11.47;38.87;100650.06;5081580;28;20068;-68
2022/05/24 03:16:33;;;;;;;5.10;1.70;;;;;;;11.33;39.14;100657.31;5078414;28;20040;-68
2022/05/24 03:18:59;;;;;;;5.72;1.75;;;;;;;11.13;38.97;100655.53;5079325;28;20091;-68
2022/05/24 03:21:25;;;;;;;3.55;1.40;;;;;;;10.94;39.12;100654.56;5070271;28;20044;-68
2022/05/24 03:23:50;;;;;;;1.45;1.30;;;;;;;10.94;39.50;100651.81;5082033;28;20063;-68
2022/05/24 03:26:16;;;;;;;1.95;1.35;;;;;;;11.06;39.20;100661.31;5082942;28;20043;-68
2022/05/24 03:28:42;;;;;;;3.67;2.40;;;;;;;11.08;39.31;100656.38;5080315;28;20131;-68
2022/05/24 03:31:09;;;;;;;1.48;0.85;;;;;;;11.20;38.89;100666.19;5070491;28;20495;-68
2022/05/24 03:33:35;;;;;;;1.33;1.02;;;;;;;11.38;38.12;100660.03;5070045;28;20036;-68
2022/05/24 03:36:02;;;;;;;5.47;1.52;;;;;;;11.37;38.08;100656.47;5072738;28;20110;-68
2022/05/24 03:38:31;;;;;;;2.47;1.20;;;;;;;11.53;37.42;100653.59;5083534;28;20032;-68
2022/05/24 03:40:56;;;;;;;1.52;1.25;;;;;;;11.59;36.70;100656.00;5084222;28;20040;-68
2022/05/24 03:43:22;;;;;;;2.72;1.30;;;;;;;11.34;37.31;100668.03;5079233;28;20075;-69
2022/05/24 03:45:48;;;;;;;4.53;1.42;;;;;;;11.24;37.20;100657.09;5078536;28;20494;-68
2022/05/24 03:48:15;;;;;;;1.65;1.08;;;;;;;11.31;37.22;100674.09;5074736;28;20055;-68
2022/05/24 03:50:41;;;;;;;3.33;1.70;;;;;;;11.53;36.02;100670.91;5073785;28;20032;-69
2022/05/24 03:53:07;;;;;;;2.55;1.60;;;;;;;11.47;36.27;100672.06;5086968;28;20131;-69
2022/05/24 03:55:33;;;;;;;2.20;1.13;;;;;;;11.48;36.51;100676.44;4768305;28;20048;-68
2022/05/24 03:58:01;;;;;;;0.68;0.40;;;;;;;11.83;35.63;100671.78;5084090;28;20036;-69
2022/05/24 04:00:31;;;;;;;1.55;1.10;;;;;;;11.94;35.65;100673.31;5082025;28;20110;-68
2022/05/24 04:02:56;;;;;;;;;;;;;;;12.05;35.42;100667.44;5071139;28;20032;-69
2022/05/24 04:05:22;;;;;;;3.25;1.10;;;;;;;12.26;34.97;100664.47;5080155;28;20442;-68
2022/05/24 04:07:47;;;;;;;1.00;0.90;;;;;;;12.35;34.76;100671.81;5072449;28;20838;-68
2022/05/24 04:10:14;;;;;;;3.30;1.10;;;;;;;12.56;34.36;100671.56;5086786;28;20047;-68
2022/05/24 04:12:40;;;;;;;1.67;0.93;;;;;;;12.65;34.15;100667.03;5080874;28;20033;-68
2022/05/24 04:15:06;;;;;;;3.05;1.30;;;;;;;12.77;33.15;100674.88;5086239;28;20036;-68
2022/05/24 04:17:32;;;;;;;1.13;1.02;;;;;;;12.65;32.54;100691.81;5073665;28;20039;-68
2022/05/24 04:19:58;;;;;;;1.35;1.25;;;;;;;12.35;32.31;100688.31;5070810;28;20047;-68
2022/05/24 04:22:23;;;;;;;1.00;0.80;;;;;;;12.14;32.07;100675.06;5080114;28;20047;-68
2022/05/24 04:24:49;;;;;;;2.38;1.20;;;;;;;12.03;32.64;100677.09;5085326;28;20039;-68
2022/05/24 04:27:14;;;;;;;2.38;1.33;;;;;;;11.94;32.29;100678.81;5080979;28;20127;-67
2022/05/24 04:29:41;;;;;;;2.03;1.25;;;;;;;11.93;32.92;100689.00;5088723;28;20051;-67
2022/05/24 04:32:08;;;;;;;1.35;1.20;;;;;;;12.01;33.12;100690.31;5085109;28;20048;-68
2022/05/24 04:34:34;;;;;;;1.60;1.20;;;;;;;12.11;31.61;100675.63;5093137;28;20545;-68
2022/05/24 04:36:59;;;;;;;1.52;0.70;;;;;;;12.04;31.85;100682.31;5092827;28;20040;-68
2022/05/24 04:39:25;;;;;;;2.30;0.90;;;;;;;12.31;31.34;100683.69;5089439;28;20040;-68
2022/05/24 04:44:35;;;;;;;2.40;0.73;;;;;;;12.59;31.75;100695.75;5076979;28;20038;-68
2022/05/24 04:47:07;;;;;;;2.15;1.15;;;;;;;12.87;30.98;100694.88;5092405;28;20048;-69
2022/05/24 04:49:33;;;;;;;2.30;0.90;;;;;;;13.24;30.83;100709.84;5054432;28;20040;-68
2022/05/24 04:52:02;;;;;;;1.17;0.90;;;;;;;13.30;30.29;100696.78;5075390;28;20515;-68
2022/05/24 04:54:27;;;;;;;2.85;1.20;;;;;;;13.26;29.47;100707.59;5086980;28;20044;-68
2022/05/24 04:56:53;;;;;;;1.83;0.95;;;;;;;13.06;29.91;100707.84;5077326;28;20056;-68
2022/05/24 04:59:20;;;;;;;1.52;1.00;;;;;;;13.29;29.61;100715.25;5076741;28;20494;-68
2022/05/24 05:01:46;;;;;;;2.08;0.73;;;;;;;13.53;28.78;100704.16;5083288;28;20040;-68
2022/05/24 05:04:12;;;;;;;2.88;1.60;;;;;;;13.72;28.64;100698.63;5081406;28;20040;-68
2022/05/24 05:06:42;;;;;;;1.23;1.08;;;;;;;13.79;28.97;100701.81;5086871;28;20092;-69
2022/05/24 05:09:09;;;;;;;1.35;0.90;;;;;;;13.87;29.22;100699.19;5088040;28;20042;-68
2022/05/24 05:11:36;;;;;;;1.30;1.20;;;;;;;14.09;28.36;100714.28;5077082;28;20036;-67
2022/05/24 05:14:02;;;;;;;1.20;1.10;;;;;;;13.95;28.36;100700.44;5078345;28;20452;-69
2022/05/24 05:16:27;;;;;;;1.13;0.95;;;;;;;14.32;27.78;100706.97;5085343;28;20558;-69
2022/05/24 05:18:53;;;;;;;3.50;1.08;;;;;;;14.55;28.10;100699.63;5082780;28;20600;-69
2022/05/24 05:21:19;;;;;;;4.63;0.90;;;;;;;14.82;27.27;100704.38;5085322;28;20122;-68
2022/05/24 05:23:44;;;;;;;2.97;0.80;;;;;;;14.90;27.78;100709.16;5065807;28;20123;-69
2022/05/24 05:26:10;;;;;;;7.43;1.25;;;;;;;14.98;27.81;100717.56;5079639;28;20040;-69
2022/05/24 05:28:36;;;;;;;1.70;1.10;;;;;;;14.90;27.68;100709.16;5080232;28;20135;-68
2022/05/24 05:31:16;;;;;;;1.48;0.90;;;;;;;14.82;27.42;100718.19;5072412;28;20510;-69
2022/05/24 05:33:43;;;;;;;2.28;0.90;;;;;;;14.75;28.09;100721.31;5073923;28;20044;-68
2022/05/24 05:36:09;;;;;;;3.13;1.30;;;;;;;14.89;28.03;100726.84;5083911;28;20094;-68
2022/05/24 05:38:34;;;;;;;1.17;0.77;;;;;;;15.38;28.61;100735.19;5072216;28;20044;-67
2022/05/24 05:41:01;;;;;;;0.40;0.40;;;;;;;15.65;26.63;100733.50;5072560;28;20059;-68
2022/05/24 05:43:26;;;;;;;2.75;1.27;;;;;;;15.35;28.00;100730.28;5076528;28;20563;-68
2022/05/24 05:45:53;;;;;;;1.42;1.00;;;;;;;15.40;27.24;100726.56;5087764;28;20044;-68
2022/05/24 05:48:19;;;;;;;3.60;1.50;;;;;;;15.28;27.57;100727.13;5080960;28;20499;-68
2022/05/24 05:50:46;;;;;;;0.57;0.57;;;;;;;15.28;27.25;100731.84;5076905;28;20047;-68
2022/05/24 05:53:11;;;;;;;1.92;1.00;;;;;;;15.17;27.69;100734.00;5071853;28;20086;-68
2022/05/24 05:55:37;;;;;;;1.35;1.00;;;;;;;14.94;27.84;100741.41;5077750;28;20481;-68
2022/05/24 05:58:03;;;;;;;2.55;1.20;;;;;;;15.05;28.09;100729.00;5081006;28;20569;-69
2022/05/24 06:00:29;;;;;;;1.73;1.40;;;;;;;15.36;27.63;100729.16;5076871;28;20083;-68
2022/05/24 06:02:55;;;;;;;2.10;1.00;;;;;;;15.58;28.49;100733.06;5078597;28;20127;-71
2022/05/24 06:05:20;;;;;;;1.40;0.82;;;;;;;15.76;27.97;100734.88;5092490;28;20039;-68
2022/05/24 06:07:46;;;;;;;1.67;1.00;;;;;;;15.84;27.55;100736.91;5081582;28;20119;-69
2022/05/24 06:10:12;;;;;;;2.42;1.20;;;;;;;15.95;26.83;100738.28;5073856;28;20043;-69
2022/05/24 06:12:38;;;;;;;2.40;1.50;;;;;;;16.12;26.97;100743.13;5071358;28;20036;-69
2022/05/24 06:15:04;;;;;;;1.23;0.85;;;;;;;16.24;26.86;100748.91;5083419;28;20387;-69
2022/05/24 06:17:30;;;;;;;4.60;0.90;;;;;;;16.33;26.48;100740.66;5071466;28;20031;-69
2022/05/24 06:20:00;;;;;;;1.20;0.93;;;;;;;16.04;26.48;100735.59;5071709;28;20036;-69
2022/05/24 06:22:25;;;;;;;0.40;0.40;;;;;;;16.06;26.14;100754.66;5077491;28;20104;-69
2022/05/24 06:24:51;;;;;;;3.28;1.02;;;;;;;15.64;26.92;100743.75;5074462;28;20041;-69
2022/05/24 06:27:21;;;;;;;2.90;1.27;;;;;;;15.60;26.46;100750.19;5058332;28;20041;-69
2022/05/24 06:29:46;;;;;;;3.05;0.90;;;;;;;15.65;27.22;100742.63;5071093;28;20040;-69
2022/05/24 06:32:12;;;;;;;1.67;0.90;;;;;;;15.72;26.98;100739.41;5075523;28;20490;-69
2022/05/24 06:34:37;;;;;;;1.75;1.30;;;;;;;15.72;26.88;100739.41;5083102;28;20101;-69
2022/05/24 06:37:03;;;;;;;3.28;1.10;;;;;;;15.86;26.45;100744.91;5083014;28;20140;-69
2022/05/24 06:39:30;;;;;;;2.25;2.05;;;;;;;16.02;26.25;100746.16;5085948;28;20036;-69
2022/05/24 06:41:55;;;;;;;2.38;0.80;;;;;;;16.08;26.13;100747.66;5090509;28;20042;-69
2022/05/24 06:44:27;;;;;;;1.48;0.93;;;;;;;16.01;26.35;100749.25;5078095;28;20041;-69
2022/05/24 06:46:53;;;;;;;1.70;1.13;;;;;;;16.03;26.26;100761.63;5075099;28;20040;-69
2022/05/24 06:49:18;;;;;;;5.95;1.20;;;;;;;16.07;26.15;100770.13;5082252;28;20037;-69
2022/05/24 06:51:44;;;;;;;3.35;1.65;;;;;;;16.11;26.22;100769.16;5080693;28;20054;-69
2022/05/24 06:54:09;;;;;;;2.30;1.50;;;;;;;16.14;26.33;100760.25;5073327;28;20040;-69
2022/05/24 06:56:35;;;;;;;2.28;1.25;;;;;;;16.29;26.06;100770.09;5071858;28;20060;-69
2022/05/24 07:04:29;;;;;;;2.17;1.55;;;;;;;16.35;25.98;100768.84;5079396;28;20078;-67
2022/05/24 07:06:55;;;;;;;1.40;1.20;;;;;;;16.24;25.68;100756.41;5072753;28;20075;-67
2022/05/24 07:09:23;;;;;;;3.05;1.20;;;;;;;16.15;25.78;100770.19;5101809;28;20080;-69
2022/05/24 07:11:50;;;;;;;1.83;1.13;;;;;;;16.32;26.49;100757.59;5085694;28;20055;-68
2022/05/24 07:14:15;;;;;;;1.50;1.20;;;;;;;16.60;26.02;100770.13;5079837;28;20032;-68
2022/05/24 07:16:41;;;;;;;5.93;1.35;;;;;;;16.76;25.10;100767.78;5079618;28;20036;-66
2022/05/24 07:19:06;;;;;;;1.48;1.00;;;;;;;16.90;25.47;100768.50;5082815;28;20092;-67
2022/05/24 07:21:32;;;;;;;3.63;1.00;;;;;;;16.96;25.17;100778.28;5076390;28;20387;-69
2022/05/24 07:23:58;;;;;;;2.53;1.20;;;;;;;16.87;25.36;100769.97;5077141;28;20463;-68
2022/05/24 07:26:24;;;;;;;1.13;1.00;;;;;;;16.72;25.58;100762.06;5091091;28;20044;-68
2022/05/24 07:28:50;;;;;;;2.25;1.08;;;;;;;16.95;25.79;100770.31;5081402;28;20044;-69
2022/05/24 07:31:16;;;;;;;4.18;1.55;;;;;;;17.10;24.49;100761.56;5070592;28;20067;-69
2022/05/24 07:33:41;;;;;;;2.78;1.23;;;;;;;16.63;25.18;100765.88;5087604;28;20080;-68
2022/05/24 07:36:07;;;;;;;2.45;1.10;;;;;;;16.01;25.10;100763.09;5090815;28;20036;-68
2022/05/24 07:38:33;;;;;;;2.78;1.17;;;;;;;16.04;25.72;100762.44;5090064;28;20040;-69
2022/05/24 07:46:28;;;;;;;2.63;1.52;;;;;;;16.34;26.18;100758.91;5081347;28;20162;-68
2022/05/24 07:48:54;;;;;;;1.10;0.90;;;;;;;16.57;25.46;100754.97;5070456;28;20135;-68
2022/05/24 07:51:20;;;;;;;2.03;1.13;;;;;;;16.83;25.35;100759.81;5083092;28;20047;-68
2022/05/24 07:53:45;;;;;;;2.60;1.10;;;;;;;17.12;25.17;100757.31;5069074;28;20051;-68
2022/05/24 07:56:13;;;;;;;2.97;1.20;;;;;;;17.10;24.94;100756.81;5090467;28;20055;-68
2022/05/24 07:58:39;;;;;;;4.18;1.10;;;;;;;17.03;25.11;100758.44;5088965;28;20044;-68
2022/05/24 08:01:04;;;;;;;1.08;0.90;;;;;;;16.81;25.03;100759.31;5075311;28;20067;-71
2022/05/24 08:03:30;;;;;;;3.35;1.60;;;;;;;17.04;25.40;100754.53;5078351;28;20109;-71
2022/05/24 08:05:56;;;;;;;5.80;1.50;;;;;;;17.20;25.13;100757.69;5079714;28;20062;-71
2022/05/24 08:08:22;;;;;;;3.05;1.40;;;;;;;17.34;24.67;100758.31;5087714;28;20579;-72
2022/05/24 08:10:47;;;;;;;1.52;1.23;;;;;;;17.39;24.37;100775.66;5092748;28;20089;-71
2022/05/24 08:13:15;;;;;;;1.20;1.10;;;;;;;16.98;24.57;100758.56;5081807;28;20437;-72
2022/05/24 08:15:41;;;;;;;1.27;1.02;;;;;;;16.85;24.56;100768.66;5086621;28;20062;-71
2022/05/24 08:18:06;;;;;;;6.75;1.55;;;;;;;16.88;24.64;100768.00;5091703;28;20040;-72
2022/05/24 08:20:33;;;;;;;4.82;1.35;;;;;;;16.88;24.80;100754.16;5081732;28;20043;-74
2022/05/24 08:22:59;;;;;;;2.13;1.50;;;;;;;17.05;25.01;100756.16;5087411;28;20430;-75
2022/05/24 08:25:28;;;;;;;1.38;1.27;;;;;;;17.15;25.13;100753.88;5080360;28;20119;-74
2022/05/24 08:27:54;;;;;;;2.40;1.20;;;;;;;17.27;24.64;100760.78;5078902;28;20583;-77
2022/05/24 08:30:20;;;;;;;2.00;1.02;;;;;;;17.48;24.44;100756.22;5075812;28;20123;-82
2022/05/24 08:32:50;;;;;;;1.35;1.02;;;;;;;17.61;24.02;100748.91;5083376;28;20120;-83
2022/05/24 08:35:17;;;;;;;2.90;1.05;;;;;;;17.56;24.44;100760.19;5080141;28;20682;-75
2022/05/24 08:37:43;;;;;;;2.70;1.45;;;;;;;17.70;22.84;100753.38;5083445;28;20067;-77
2022/05/24 08:40:11;;;;;;;1.05;0.95;;;;;;;17.66;22.81;100757.06;5080858;28;20125;-75
2022/05/24 08:42:46;;;;;;;0.80;0.63;;;;;;;17.45;21.87;100768.81;5082918;28;20405;-74
2022/05/24 08:48:28;;;;;;;2.13;0.82;;;;;;;17.36;21.91;100778.28;5074499;28;20054;-74
2022/05/24 08:51:01;;;;;;;1.10;0.90;;;;;;;16.94;22.63;100754.81;5082577;28;20044;-74
2022/05/24 08:53:40;;;;;;;1.48;1.00;;;;;;;16.81;22.62;100764.88;5081347;28;20060;-74
2022/05/24 08:56:28;;;;;;;2.00;0.95;;;;;;;16.53;22.91;100758.69;5083901;28;20045;-74
2022/05/24 08:59:06;;;;;;;0.93;0.70;;;;;;;16.42;22.89;100758.13;5062292;28;20052;-74
2022/05/24 09:01:32;;;;;;;1.27;0.70;;;;;;;16.38;22.52;100768.22;5062262;28;20044;-75
2022/05/24 09:04:00;;;;;;;2.95;0.90;;;;;;;16.14;22.77;100781.56;5072799;28;20040;-73
2022/05/24 09:07:06;;;;;;;1.90;1.00;;;;;;;16.24;23.18;100768.28;5072710;28;20040;-74
2022/05/24 09:09:53;;;;;;;1.83;1.10;;;;;;;16.55;22.50;100762.78;5054885;28;20044;-74
2022/05/24 09:12:44;;;;;;;2.03;0.88;;;;;;;16.77;20.98;100770.22;5072269;28;20067;-75
2022/05/24 09:18:55;;;;;;;1.20;0.95;;;;;;;16.33;21.82;100757.28;5087336;28;20043;-75
2022/05/24 09:21:21;;;;;;;4.10;1.10;;;;;;;16.31;20.73;100762.28;5091781;28;20117;-75
2022/05/24 09:23:51;;;;;;;1.30;1.02;;;;;;;16.24;21.84;100750.84;5093148;28;20486;-74
2022/05/24 09:26:24;;;;;;;2.60;0.80;;;;;;;16.29;21.79;100764.56;5074560;28;20036;-75
2022/05/24 09:28:49;;;;;;;2.20;0.70;;;;;;;16.23;21.62;100760.31;5092842;28;20051;-75
2022/05/24 09:31:23;;;;;;;1.13;0.90;;;;;;;16.23;22.19;100754.75;5092810;28;20098;-75
2022/05/24 09:33:54;;;;;;;2.08;0.93;;;;;;;16.27;22.19;100761.28;5091360;28;20065;-75
2022/05/24 09:36:42;;;;;;;1.58;1.02;;;;;;;16.14;21.43;100762.19;5077775;28;20036;-75
2022/05/24 09:39:35;;;;;;;3.55;1.00;;;;;;;15.88;21.14;100762.81;5087185;28;20126;-75
2022/05/24 09:42:13;;;;;;;2.42;1.15;;;;;;;15.57;21.70;100759.91;5090936;28;20047;-75
2022/05/24 09:44:49;;;;;;;4.43;1.08;;;;;;;15.42;21.01;100753.91;5086346;28;20033;-74
2022/05/24 09:47:31;;;;;;;3.65;1.00;;;;;;;15.20;21.87;100757.44;5078138;28;20068;-75
2022/05/24 09:50:21;;;;;;;2.50;0.98;;;;;;;15.15;22.06;100752.84;5072653;28;20040;-76
2022/05/24 09:53:01;;;;;;;1.00;0.90;;;;;;;15.22;21.91;100764.28;5092848;28;20061;-76
2022/05/24 09:55:28;;;;;;;1.40;0.85;;;;;;;15.05;21.43;100764.91;5090963;28;20074;-74
2022/05/24 09:57:54;;;;;;;4.63;1.27;;;;;;;14.90;21.76;100756.94;5092388;28;20036;-74
2022/05/24 10:00:23;;;;;;;0.90;0.80;;;;;;;14.73;21.57;100752.03;5092100;28;20062;-74
2022/05/24 10:03:04;;;;;;;0.70;0.70;;;;;;;14.60;21.42;100757.56;5084544;28;20075;-76
2022/05/24 10:05:29;;;;;;;1.65;0.95;;;;;;;14.66;20.65;100757.16;5071840;28;20044;-76
2022/05/24 10:08:02;;;;;;;0.85;0.57;;;;;;;14.64;20.98;100764.91;5070795;28;20045;-76
2022/05/24 10:10:32;;;;;;;2.38;1.33;;;;;;;14.58;20.59;100771.69;5070872;28;20502;-75
2022/05/24 10:13:13;;;;;;;1.20;0.88;;;;;;;14.53;20.14;100760.69;5037410;28;20422;-76
2022/05/24 10:15:47;;;;;;;1.45;1.10;;;;;;;14.43;20.43;100764.47;5071555;28;20604;-75
2022/05/24 10:18:44;;;;;;;1.80;0.50;;;;;;;14.41;20.53;100772.22;5070262;28;20086;-76
2022/05/24 10:21:36;;;;;;;1.48;1.05;;;;;;;14.36;20.46;100764.00;5070569;28;20043;-76
2022/05/24 10:24:26;;;;;;;6.75;1.70;;;;;;;14.35;19.67;100769.84;5069991;28;20047;-75
2022/05/24 10:27:17;;;;;;;1.35;1.23;;;;;;;14.34;19.36;100759.91;5073886;28;20507;-75
2022/05/24 10:29:58;;;;;;;2.78;1.30;;;;;;;14.41;19.32;100772.22;5090746;28;20039;-74
2022/05/24 10:39:02;;;;;;;3.08;1.80;;;;;;;14.19;19.47;100759.06;5072764;28;20044;-75
2022/05/24 10:41:54;;;;;;;2.38;1.70;;;;;;;14.16;18.51;100773.47;5090036;28;20405;-75
2022/05/24 10:44:20;;;;;;;1.67;1.58;;;;;;;14.06;19.54;100768.13;5090098;28;20497;-75
2022/05/24 10:46:55;;;;;;;1.92;1.65;;;;;;;14.04;19.36;100762.06;5091676;28;20040;-75
2022/05/24 10:49:39;;;;;;;1.65;1.40;;;;;;;14.03;18.98;100771.47;5073187;28;20058;-74
2022/05/24 10:52:30;;;;;;;2.88;1.35;;;;;;;13.96;19.72;100757.25;5091586;28;20052;-75
2022/05/24 10:55:12;;;;;;;3.28;1.88;;;;;;;13.98;19.94;100763.28;5073488;28;20054;-75
2022/05/24 10:58:00;;;;;;;1.40;0.93;;;;;;;14.10;19.03;100763.66;5089656;28;20533;-75
2022/05/24 11:00:43;;;;;;;2.30;1.20;;;;;;;14.14;18.60;100763.84;5089890;28;20036;-75
2022/05/24 11:03:12;;;;;;;3.28;1.90;;;;;;;14.13;19.02;100778.78;5073428;28;20035;-75
2022/05/24 11:05:59;;;;;;;4.13;1.42;;;;;;;14.02;18.67;100778.13;5091036;28;20036;-75
2022/05/24 11:08:37;;;;;;;4.18;1.70;;;;;;;13.96;19.49;100771.06;5089699;28;20525;-75
2022/05/24 11:11:44;;;;;;;1.38;1.08;;;;;;;13.96;19.32;100753.69;5073110;28;20036;-75
2022/05/24 11:14:35;;;;;;;1.30;1.10;;;;;;;14.04;19.79;100767.59;5091095;28;20129;-75
2022/05/24 11:17:01;;;;;;;2.55;1.65;;;;;;;14.16;20.36;100761.63;5091062;28;20044;-75
2022/05/24 11:19:36;;;;;;;1.88;1.13;;;;;;;14.21;19.44;100771.75;5089613;28;20128;-75
2022/05/24 11:22:24;;;;;;;5.28;1.73;;;;;;;14.21;19.89;100785.53;5089673;28;20093;-75
2022/05/24 11:25:19;;;;;;;2.05;1.40;;;;;;;14.23;20.51;100788.81;5090979;28;20520;-75
2022/05/24 11:27:50;;;;;;;1.00;1.00;;;;;;;14.19;19.93;100789.41;5090789;28;20077;-75
2022/05/24 11:30:35;;;;;;;1.85;1.05;;;;;;;14.22;20.36;100779.72;5090856;28;20036;-75
2022/05/24 11:33:05;;;;;;;1.40;1.13;;;;;;;14.23;20.35;100783.28;5089950;28;20492;-75
2022/05/24 11:35:36;;;;;;;3.92;1.05;;;;;;;14.21;21.33;100774.50;5091523;28;20490;-75
2022/05/24 11:38:18;;;;;;;1.65;1.35;;;;;;;14.21;21.77;100769.78;5077409;28;20127;-75
2022/05/24 11:40:58;;;;;;;1.20;1.10;;;;;;;14.29;21.68;100769.13;5076749;28;20533;-75
2022/05/24 11:43:35;;;;;;;4.55;1.38;;;;;;;14.34;21.87;100779.25;5094851;28;20126;-75
2022/05/24 11:46:08;;;;;;;1.08;0.98;;;;;;;14.33;22.45;100774.84;5093902;28;20052;-75
2022/05/24 11:48:40;;;;;;;1.40;1.10;;;;;;;14.32;22.16;100767.69;5093463;28;20048;-75
2022/05/24 11:51:29;;;;;;;2.08;1.10;;;;;;;14.35;22.39;100770.66;5093481;28;20058;-75
2022/05/24 11:53:55;;;;;;;1.42;0.80;;;;;;;14.36;21.67;100786.09;5094864;28;20048;-75
2022/05/24 11:56:24;;;;;;;1.88;1.10;;;;;;;14.33;22.48;100770.16;5093156;28;20058;-75
2022/05/24 11:59:04;;;;;;;2.22;1.27;;;;;;;14.38;22.72;100764.53;5094264;28;20032;-75
2022/05/24 12:01:34;;;;;;;2.55;1.08;;;;;;;14.47;23.08;100784.00;5093233;28;20059;-75
2022/05/24 12:10:21;;;;;;;1.83;1.08;;;;;;;14.41;23.69;100765.88;5072191;28;20591;-75
2022/05/24 12:12:50;;;;;;;1.40;1.30;;;;;;;14.44;23.47;100766.13;5073434;28;20072;-75
2022/05/24 12:15:32;;;;;;;0.98;0.90;;;;;;;14.47;25.24;100782.06;5072340;28;20453;-75
2022/05/24 12:17:58;;;;;;;1.05;0.80;;;;;;;14.54;24.72;100769.81;5073759;28;20041;-75
2022/05/24 12:20:49;;;;;;;1.30;1.17;;;;;;;14.59;24.62;100769.72;5073831;28;20053;-74
2022/05/24 12:23:30;;;;;;;1.95;1.13;;;;;;;14.62;25.10;100777.41;5073634;28;20118;-75
2022/05/24 12:25:59;;;;;;;1.90;1.00;;;;;;;14.69;25.59;100769.53;5073817;28;20127;-75